createdAt,value
2023-03-27T00:01:16.369Z,4.78
2023-03-27T00:03:18.228Z,5.38
2023-03-27T00:05:21.075Z,3.70
2023-03-27T00:07:22.898Z,4.85
2023-03-27T00:09:27.272Z,3.45
2023-03-27T00:11:30.847Z,3.65
2023-03-27T00:13:33.636Z,4.60
2023-03-27T00:15:36.116Z,4.20
2023-03-27T00:17:37.792Z,4.43
2023-03-27T00:19:39.590Z,4.10
2023-03-27T00:21:41.866Z,4.50
2023-03-27T00:23:43.833Z,4.35
2023-03-27T00:25:48.846Z,5.20
2023-03-27T00:27:51.267Z,4.20
2023-03-27T00:29:54.019Z,5.00
2023-03-27T00:31:56.327Z,4.20
2023-03-27T00:33:58.134Z,3.80
2023-03-27T00:35:59.807Z,3.92
2023-03-27T00:38:02.466Z,4.13
2023-03-27T00:40:20.332Z,3.28
2023-03-27T00:42:23.287Z,3.55
2023-03-27T00:44:31.216Z,4.53
2023-03-27T00:46:42.926Z,3.55
2023-03-27T00:48:48.347Z,2.95
2023-03-27T00:50:50.433Z,3.60
2023-03-27T00:52:56.476Z,3.25
2023-03-27T00:55:01.362Z,4.43
2023-03-27T00:57:07.374Z,4.20
2023-03-27T00:59:12.906Z,3.85
2023-03-27T01:01:16.015Z,3.40
2023-03-27T01:03:20.407Z,4.13
2023-03-27T01:05:22.241Z,2.95
2023-03-27T01:07:25.273Z,3.40
2023-03-27T01:09:27.264Z,3.67
2023-03-27T01:11:56.426Z,3.13
2023-03-27T01:14:05.232Z,3.63
2023-03-27T01:16:33.141Z,3.10
2023-03-27T01:18:56.985Z,4.50
2023-03-27T01:21:26.880Z,2.70
2023-03-27T01:23:59.784Z,3.83
2023-03-27T01:26:07.277Z,2.63
2023-03-27T01:28:27.779Z,3.00
2023-03-27T01:30:42.477Z,3.28
2023-03-27T01:33:06.274Z,3.03
2023-03-27T01:35:23.620Z,3.85
2023-03-27T01:37:30.939Z,2.65
2023-03-27T01:40:02.120Z,2.70
2023-03-27T01:42:41.476Z,2.65
2023-03-27T01:44:58.533Z,2.92
2023-03-27T01:47:07.786Z,2.65
2023-03-27T01:49:13.137Z,2.28
2023-03-27T01:51:28.307Z,2.60
2023-03-27T01:53:33.268Z,2.33
2023-03-27T01:55:38.405Z,2.30
2023-03-27T01:57:50.548Z,2.53
2023-03-27T02:00:18.598Z,3.42
2023-03-27T02:02:28.727Z,1.98
2023-03-27T02:04:37.793Z,2.50
2023-03-27T02:06:43.837Z,2.42
2023-03-27T02:09:05.228Z,2.50
2023-03-27T02:11:07.863Z,2.40
2023-03-27T02:13:18.362Z,2.80
2023-03-27T02:15:27.421Z,2.17
2023-03-27T02:17:29.764Z,2.97
2023-03-27T02:19:38.379Z,2.03
2023-03-27T02:21:40.307Z,2.70
2023-03-27T02:23:43.599Z,2.17
2023-03-27T02:25:46.147Z,2.40
2023-03-27T02:27:48.673Z,3.20
2023-03-27T02:30:31.430Z,2.45
2023-03-27T02:32:47.515Z,1.95
2023-03-27T02:35:05.479Z,1.90
2023-03-27T02:37:19.913Z,2.55
2023-03-27T02:39:49.044Z,3.10
2023-03-27T02:42:02.588Z,2.88
2023-03-27T02:44:33.499Z,1.67
2023-03-27T02:47:07.501Z,2.45
2023-03-27T02:49:14.929Z,1.55
2023-03-27T02:51:26.360Z,2.35
2023-03-27T02:53:30.863Z,2.22
2023-03-27T02:55:43.413Z,1.90
2023-03-27T02:57:52.268Z,1.90
2023-03-27T02:59:57.780Z,2.60
2023-03-27T03:02:01.549Z,1.65
2023-03-27T03:04:11.082Z,2.17
2023-03-27T03:06:14.361Z,2.28
2023-03-27T03:08:16.045Z,2.13
2023-03-27T03:10:17.828Z,2.38
2023-03-27T03:12:20.070Z,2.22
2023-03-27T03:14:26.456Z,3.42
2023-03-27T03:16:29.576Z,1.98
2023-03-27T03:18:31.457Z,1.30
2023-03-27T03:20:34.806Z,1.88
2023-03-27T03:22:40.019Z,2.03
2023-03-27T03:24:42.469Z,1.75
2023-03-27T03:26:45.267Z,2.65
2023-03-27T03:29:00.487Z,1.75
2023-03-27T03:31:02.950Z,1.40
2023-03-27T03:33:04.861Z,2.00
2023-03-27T03:35:08.690Z,1.67
2023-03-27T03:37:10.703Z,1.63
2023-03-27T03:39:12.872Z,2.10
2023-03-27T03:41:14.649Z,2.60
2023-03-27T03:43:16.321Z,1.88
2023-03-27T03:45:18.989Z,1.60
2023-03-27T03:47:20.788Z,1.52
2023-03-27T03:49:22.496Z,1.60
2023-03-27T03:51:24.418Z,1.52
2023-03-27T03:53:26.185Z,4.88
2023-03-27T03:55:27.875Z,1.48
2023-03-27T03:57:29.710Z,2.03
2023-03-27T03:59:31.376Z,1.85
2023-03-27T04:01:33.709Z,1.60
2023-03-27T04:03:36.296Z,1.52
2023-03-27T04:05:38.598Z,2.33
2023-03-27T04:07:41.220Z,1.85
2023-03-27T04:09:43.010Z,1.90
2023-03-27T04:11:44.932Z,1.90
2023-03-27T04:13:46.797Z,1.88
2023-03-27T04:15:48.502Z,1.20
2023-03-27T04:17:51.010Z,2.08
2023-03-27T04:19:57.439Z,2.20
2023-03-27T04:22:02.764Z,1.92
2023-03-27T04:24:04.520Z,1.58
2023-03-27T04:26:06.493Z,2.30
2023-03-27T04:28:10.481Z,2.25
2023-03-27T04:30:16.011Z,2.13
2023-03-27T04:32:19.456Z,3.13
2023-03-27T04:34:22.308Z,2.15
2023-03-27T04:36:24.598Z,2.42
2023-03-27T04:38:26.378Z,1.90
2023-03-27T04:40:30.218Z,2.05
2023-03-27T04:42:32.181Z,1.83
2023-03-27T04:44:35.028Z,1.67
2023-03-27T04:46:36.724Z,2.15
2023-03-27T04:48:39.089Z,2.78
2023-03-27T04:50:44.265Z,2.25
2023-03-27T04:52:50.194Z,2.72
2023-03-27T04:54:52.196Z,1.85
2023-03-27T04:56:54.616Z,3.88
2023-03-27T04:58:59.219Z,1.90
2023-03-27T05:01:05.646Z,1.95
2023-03-27T05:03:09.009Z,2.28
2023-03-27T05:05:11.482Z,3.20
2023-03-27T05:07:13.473Z,3.20
2023-03-27T05:09:18.347Z,2.90
2023-03-27T05:11:20.212Z,4.35
2023-03-27T05:13:22.892Z,3.47
2023-03-27T05:15:25.009Z,2.78
2023-03-27T05:20:32.616Z,2.92
2023-03-27T05:22:46.316Z,2.75
2023-03-27T05:24:48.210Z,2.13
2023-03-27T05:26:50.099Z,2.20
2023-03-27T05:28:54.358Z,2.42
2023-03-27T05:30:57.363Z,2.67
2023-03-27T05:32:59.637Z,2.42
2023-03-27T05:35:02.044Z,2.28
2023-03-27T05:37:06.170Z,2.33
2023-03-27T05:39:07.971Z,2.20
2023-03-27T05:41:12.644Z,1.95
2023-03-27T05:43:14.617Z,2.67
2023-03-27T05:45:17.268Z,2.05
2023-03-27T05:47:21.114Z,1.80
2023-03-27T05:49:22.817Z,2.95
2023-03-27T05:51:24.581Z,3.10
2023-03-27T05:53:28.619Z,2.92
2023-03-27T05:55:31.714Z,2.97
2023-03-27T05:57:33.578Z,2.67
2023-03-27T05:59:35.914Z,2.55
2023-03-27T06:01:42.248Z,2.55
2023-03-27T06:03:47.546Z,2.03
2023-03-27T06:05:54.144Z,2.22
2023-03-27T06:08:00.003Z,1.67
2023-03-27T06:10:04.829Z,1.70
2023-03-27T06:12:07.237Z,2.88
2023-03-27T06:14:13.484Z,2.28
2023-03-27T06:16:21.786Z,2.00
2023-03-27T06:18:31.106Z,2.25
2023-03-27T06:20:37.658Z,1.95
2023-03-27T06:22:49.834Z,2.58
2023-03-27T06:24:55.301Z,3.25
2023-03-27T06:26:58.188Z,2.38
2023-03-27T06:28:59.958Z,3.03
2023-03-27T06:31:05.488Z,2.45
2023-03-27T06:33:08.334Z,2.00
2023-03-27T06:35:10.774Z,2.60
2023-03-27T06:37:12.981Z,2.40
2023-03-27T06:39:14.788Z,1.50
2023-03-27T06:41:16.692Z,2.22
2023-03-27T06:43:22.555Z,1.95
2023-03-27T06:45:27.396Z,1.95
2023-03-27T06:47:30.235Z,3.03
2023-03-27T06:49:31.991Z,1.92
2023-03-27T06:51:33.885Z,1.70
2023-03-27T06:53:38.083Z,1.85
2023-03-27T06:55:40.002Z,2.45
2023-03-27T06:57:49.288Z,2.50
2023-03-27T06:59:59.676Z,2.03
2023-03-27T07:02:03.880Z,2.58
2023-03-27T07:04:06.803Z,2.28
2023-03-27T07:06:08.775Z,2.33
2023-03-27T07:08:21.827Z,1.90
2023-03-27T07:10:26.182Z,2.15
2023-03-27T07:12:28.087Z,2.20
2023-03-27T07:14:29.929Z,2.20
2023-03-27T07:16:31.849Z,1.83
2023-03-27T07:18:39.920Z,1.67
2023-03-27T07:20:41.790Z,1.55
2023-03-27T07:22:43.767Z,2.80
2023-03-27T07:24:45.661Z,2.05
2023-03-27T07:26:52.126Z,1.85
2023-03-27T07:28:59.602Z,1.90
2023-03-27T07:31:20.127Z,1.52
2023-03-27T07:33:31.032Z,2.85
2023-03-27T07:35:33.859Z,2.47
2023-03-27T07:37:47.554Z,2.05
2023-03-27T07:39:49.692Z,2.20
2023-03-27T07:42:15.406Z,2.15
2023-03-27T07:46:47.955Z,1.60
2023-03-27T07:48:51.038Z,2.30
2023-03-27T07:50:56.116Z,1.52
2023-03-27T07:53:00.160Z,2.42
2023-03-27T07:55:01.903Z,1.60
2023-03-27T07:57:03.920Z,1.35
2023-03-27T07:59:06.360Z,1.67
2023-03-27T08:01:11.877Z,1.33
2023-03-27T08:03:14.521Z,1.20
2023-03-27T08:05:17.394Z,2.10
2023-03-27T08:07:22.864Z,2.05
2023-03-27T08:09:24.586Z,1.75
2023-03-27T08:11:30.753Z,1.58
2023-03-27T08:13:33.264Z,1.95
2023-03-27T08:15:34.943Z,2.63
2023-03-27T08:17:36.973Z,2.08
2023-03-27T08:19:38.739Z,2.35
2023-03-27T08:21:40.644Z,1.35
2023-03-27T08:23:43.250Z,1.60
2023-03-27T08:25:50.494Z,1.65
2023-03-27T08:27:52.259Z,1.40
2023-03-27T08:29:53.895Z,1.55
2023-03-27T08:31:55.583Z,1.73
2023-03-27T08:33:57.409Z,1.58
2023-03-27T08:36:00.519Z,1.75
2023-03-27T08:38:03.858Z,2.35
2023-03-27T08:40:13.273Z,1.73
2023-03-27T08:42:19.096Z,1.67
2023-03-27T08:44:26.158Z,1.55
2023-03-27T08:47:06.737Z,1.70
2023-03-27T08:49:20.998Z,1.70
2023-03-27T08:51:59.741Z,2.20
2023-03-27T08:54:17.951Z,1.60
2023-03-27T08:56:27.761Z,1.55
2023-03-27T08:58:40.363Z,1.58
2023-03-27T09:00:53.457Z,1.80
2023-03-27T09:03:09.279Z,1.55
2023-03-27T09:05:16.766Z,2.03
2023-03-27T09:07:44.231Z,1.60
2023-03-27T09:09:46.912Z,1.83
2023-03-27T09:11:58.001Z,1.70
2023-03-27T09:14:36.620Z,1.60
2023-03-27T09:16:49.737Z,1.90
2023-03-27T09:19:13.989Z,1.30
2023-03-27T09:21:37.613Z,1.40
2023-03-27T09:23:45.471Z,1.58
2023-03-27T09:25:57.260Z,1.75
2023-03-27T09:28:01.629Z,1.23
2023-03-27T09:30:15.101Z,1.02
2023-03-27T09:32:17.000Z,1.00
2023-03-27T09:34:32.748Z,1.17
2023-03-27T09:36:36.063Z,1.83
2023-03-27T09:38:42.340Z,1.35
2023-03-27T09:40:50.493Z,1.33
2023-03-27T09:42:53.808Z,1.30
2023-03-27T09:44:57.591Z,1.65
2023-03-27T09:47:04.525Z,1.50
2023-03-27T09:49:13.642Z,1.92
2023-03-27T09:51:53.101Z,1.50
2023-03-27T09:53:58.788Z,1.65
2023-03-27T09:56:03.285Z,1.50
2023-03-27T09:58:20.712Z,1.80
2023-03-27T10:00:33.771Z,1.55
2023-03-27T10:02:37.107Z,1.48
2023-03-27T10:04:38.794Z,1.50
2023-03-27T10:06:49.240Z,1.92
2023-03-27T10:08:53.733Z,1.63
2023-03-27T10:10:57.916Z,1.50
2023-03-27T10:13:01.208Z,1.35
2023-03-27T10:15:04.885Z,1.42
2023-03-27T10:17:07.039Z,1.40
2023-03-27T10:19:29.925Z,1.70
2023-03-27T10:21:40.107Z,1.73
2023-03-27T10:23:49.894Z,1.70
2023-03-27T10:25:52.947Z,1.98
2023-03-27T10:27:54.816Z,1.60
2023-03-27T10:29:57.690Z,1.85
2023-03-27T10:32:01.019Z,1.67
2023-03-27T10:34:04.985Z,1.38
2023-03-27T10:36:09.058Z,1.40
2023-03-27T10:38:14.265Z,1.13
2023-03-27T10:40:18.799Z,1.10
2023-03-27T10:42:22.749Z,2.08
2023-03-27T10:44:26.088Z,1.63
2023-03-27T10:46:29.422Z,1.38
2023-03-27T10:48:47.794Z,1.10
2023-03-27T10:50:54.022Z,1.60
2023-03-27T10:52:58.768Z,1.35
2023-03-27T10:55:13.956Z,1.35
2023-03-27T10:57:27.823Z,1.20
2023-03-27T11:00:11.915Z,2.67
2023-03-27T11:02:25.617Z,1.20
2023-03-27T11:04:46.733Z,1.40
2023-03-27T11:06:57.739Z,1.65
2023-03-27T11:09:17.917Z,1.52
2023-03-27T11:11:25.470Z,1.40
2023-03-27T11:13:39.169Z,1.40
2023-03-27T11:15:46.133Z,1.20
2023-03-27T11:18:02.322Z,1.90
2023-03-27T11:20:11.324Z,1.02
2023-03-27T11:22:23.870Z,1.38
2023-03-27T11:24:38.654Z,1.50
2023-03-27T11:26:49.943Z,1.40
2023-03-27T11:29:16.134Z,1.50
2023-03-27T11:31:40.259Z,1.52
2023-03-27T11:34:07.935Z,1.40
2023-03-27T11:36:48.472Z,1.40
2023-03-27T11:39:04.972Z,1.27
2023-03-27T11:41:08.176Z,1.38
2023-03-27T11:43:11.796Z,1.30
2023-03-27T11:45:15.703Z,1.08
2023-03-27T11:47:35.887Z,1.02
2023-03-27T11:50:03.865Z,1.33
2023-03-27T11:52:23.556Z,1.10
2023-03-27T11:54:25.199Z,0.93
2023-03-27T11:56:56.309Z,0.93
2023-03-27T11:59:16.211Z,0.88
2023-03-27T12:01:23.081Z,1.00
2023-03-27T12:03:46.748Z,0.98
2023-03-27T12:06:16.931Z,1.30
2023-03-27T12:08:32.653Z,0.82
2023-03-27T12:10:36.225Z,0.82
2023-03-27T12:12:49.157Z,0.90
2023-03-27T12:15:13.836Z,1.27
2023-03-27T12:17:32.368Z,1.10
2023-03-27T12:19:46.232Z,0.82
2023-03-27T12:24:34.041Z,1.10
2023-03-27T12:26:56.464Z,1.20
2023-03-27T12:28:58.577Z,0.90
2023-03-27T12:31:19.412Z,0.65
2023-03-27T12:33:40.165Z,0.80
2023-03-27T12:35:47.693Z,1.50
2023-03-27T12:37:57.857Z,1.40
2023-03-27T12:40:00.533Z,1.23
2023-03-27T12:42:13.372Z,0.80
2023-03-27T12:44:18.590Z,1.20
2023-03-27T12:46:23.481Z,0.95
2023-03-27T12:48:26.078Z,0.85
2023-03-27T12:50:35.259Z,0.90
2023-03-27T12:52:38.545Z,0.73
2023-03-27T12:54:40.416Z,1.17
2023-03-27T12:56:42.435Z,1.10
2023-03-27T12:58:46.249Z,1.25
2023-03-27T13:01:00.696Z,1.00
2023-03-27T13:03:06.090Z,0.70
2023-03-27T13:05:53.012Z,1.33
2023-03-27T13:08:32.306Z,1.42
2023-03-27T13:10:41.669Z,0.95
2023-03-27T13:12:46.364Z,1.15
2023-03-27T13:15:02.874Z,0.77
2023-03-27T13:17:15.627Z,1.35
2023-03-27T13:19:20.442Z,1.67
2023-03-27T13:22:01.944Z,1.70
2023-03-27T13:24:28.400Z,1.30
2023-03-27T13:26:48.664Z,1.27
2023-03-27T13:28:54.737Z,1.60
2023-03-27T13:31:00.151Z,1.40
2023-03-27T13:33:18.255Z,1.55
2023-03-27T13:35:20.420Z,1.05
2023-03-27T13:37:25.977Z,0.93
2023-03-27T13:40:01.546Z,1.15
2023-03-27T13:42:14.168Z,1.00
2023-03-27T13:44:24.586Z,1.20
2023-03-27T13:46:29.537Z,1.20
2023-03-27T13:49:04.953Z,0.93
2023-03-27T13:51:12.099Z,0.82
2023-03-27T13:53:30.455Z,0.80
2023-03-27T13:56:02.434Z,1.10
2023-03-27T13:58:34.829Z,0.90
2023-03-27T14:00:41.560Z,0.98
2023-03-27T14:03:12.178Z,0.80
2023-03-27T14:05:19.839Z,0.80
2023-03-27T14:07:34.373Z,1.15
2023-03-27T14:10:09.454Z,1.13
2023-03-27T14:12:31.205Z,0.93
2023-03-27T14:14:58.524Z,0.85
2023-03-27T14:17:02.740Z,1.30
2023-03-27T14:19:28.691Z,1.00
2023-03-27T14:21:49.700Z,0.73
2023-03-27T14:24:04.769Z,0.73
2023-03-27T14:26:24.746Z,1.02
2023-03-27T14:28:51.743Z,0.70
2023-03-27T14:30:55.061Z,0.80
2023-03-27T14:32:57.688Z,0.77
2023-03-27T14:35:04.862Z,1.10
2023-03-27T14:37:29.350Z,0.85
2023-03-27T14:39:34.714Z,0.80
2023-03-27T14:41:46.205Z,0.80
2023-03-27T14:43:49.253Z,1.00
2023-03-27T14:45:52.890Z,0.70
2023-03-27T14:47:57.513Z,1.00
2023-03-27T14:50:01.861Z,0.80
2023-03-27T14:52:06.274Z,1.13
2023-03-27T14:54:17.628Z,0.65
2023-03-27T14:56:31.106Z,0.70
2023-03-27T14:58:32.980Z,0.73
2023-03-27T15:00:36.527Z,0.80
2023-03-27T15:02:39.408Z,1.48
2023-03-27T15:04:41.265Z,0.80
2023-03-27T15:06:42.968Z,0.70
2023-03-27T15:08:46.826Z,0.80
2023-03-27T15:10:57.689Z,1.02
2023-03-27T15:12:59.479Z,1.00
2023-03-27T15:15:01.194Z,0.73
2023-03-27T15:17:08.693Z,1.00
2023-03-27T15:19:12.601Z,0.90
2023-03-27T15:21:20.053Z,1.00
2023-03-27T15:23:29.542Z,1.10
2023-03-27T15:25:46.053Z,0.80
2023-03-27T15:27:54.096Z,2.50
2023-03-27T15:29:58.668Z,1.52
2023-03-27T15:32:01.507Z,1.25
2023-03-27T15:34:14.684Z,1.00
2023-03-27T15:36:26.697Z,1.13
2023-03-27T15:38:31.312Z,1.25
2023-03-27T15:40:40.323Z,0.90
2023-03-27T15:42:47.538Z,1.10
2023-03-27T15:44:49.239Z,1.05
2023-03-27T15:46:56.407Z,1.10
2023-03-27T15:48:58.182Z,1.10
2023-03-27T15:51:02.223Z,2.00
2023-03-27T15:53:03.884Z,0.85
2023-03-27T15:55:06.924Z,1.30
2023-03-27T15:57:15.729Z,1.35
2023-03-27T15:59:17.435Z,1.08
2023-03-27T16:01:24.076Z,1.30
2023-03-27T16:03:27.585Z,1.23
2023-03-27T16:05:29.514Z,1.10
2023-03-27T16:07:42.529Z,1.20
2023-03-27T16:10:03.019Z,1.30
2023-03-27T16:12:04.881Z,1.75
2023-03-27T16:14:21.667Z,1.20
2023-03-27T16:16:30.762Z,1.50
2023-03-27T16:18:35.454Z,1.63
2023-03-27T16:20:39.756Z,1.30
2023-03-27T16:22:41.621Z,1.33
2023-03-27T16:24:43.263Z,1.10
2023-03-27T16:26:45.005Z,1.00
2023-03-27T16:28:46.947Z,1.10
2023-03-27T16:30:48.996Z,1.50
2023-03-27T16:32:51.201Z,1.20
2023-03-27T16:34:53.053Z,1.10
2023-03-27T16:36:54.844Z,1.38
2023-03-27T16:38:56.719Z,0.95
2023-03-27T16:40:58.562Z,1.42
2023-03-27T16:43:00.659Z,1.00
2023-03-27T16:45:02.379Z,1.23
2023-03-27T16:47:04.166Z,1.02
2023-03-27T16:49:05.865Z,1.10
2023-03-27T16:51:07.578Z,1.20
2023-03-27T16:53:09.329Z,1.60
2023-03-27T16:55:13.077Z,1.60
2023-03-27T16:57:14.822Z,1.45
2023-03-27T16:59:16.707Z,0.90
2023-03-27T17:01:18.462Z,1.77
2023-03-27T17:03:20.419Z,2.03
2023-03-27T17:05:22.091Z,2.17
2023-03-27T17:07:27.339Z,2.00
2023-03-27T17:09:29.051Z,2.35
2023-03-27T17:11:30.997Z,1.92
2023-03-27T17:13:32.696Z,2.28
2023-03-27T17:15:38.920Z,3.03
2023-03-27T17:17:40.689Z,2.03
2023-03-27T17:19:42.325Z,2.25
2023-03-27T17:21:44.078Z,1.77
2023-03-27T17:23:48.360Z,1.45
2023-03-27T17:25:50.183Z,1.48
2023-03-27T17:27:51.921Z,1.80
2023-03-27T17:29:55.654Z,1.38
2023-03-27T17:32:02.114Z,1.13
2023-03-27T17:34:03.867Z,1.40
2023-03-27T17:36:10.435Z,1.17
2023-03-27T17:38:12.182Z,1.38
2023-03-27T17:40:14.474Z,1.55
2023-03-27T17:42:16.414Z,1.52
2023-03-27T17:44:18.411Z,1.10
2023-03-27T17:46:20.258Z,1.25
2023-03-27T17:48:21.986Z,1.33
2023-03-27T17:50:23.784Z,1.42
2023-03-27T17:52:27.248Z,1.00
2023-03-27T17:54:28.892Z,1.17
2023-03-27T17:56:31.338Z,0.98
2023-03-27T17:58:34.534Z,1.10
2023-03-27T18:00:37.201Z,1.33
2023-03-27T18:02:39.082Z,1.50
2023-03-27T18:06:43.468Z,2.20
2023-03-27T18:08:46.560Z,1.92
2023-03-27T18:10:50.532Z,2.63
2023-03-27T18:12:52.256Z,1.52
2023-03-27T18:14:54.001Z,2.00
2023-03-27T18:16:55.656Z,2.45
2023-03-27T18:18:57.925Z,1.50
2023-03-27T18:20:59.752Z,1.50
2023-03-27T18:23:01.483Z,1.42
2023-03-27T18:25:04.784Z,1.35
2023-03-27T18:27:06.555Z,1.00
2023-03-27T18:29:08.234Z,1.40
2023-03-27T18:31:15.858Z,1.00
2023-03-27T18:33:17.878Z,1.20
2023-03-27T18:35:20.741Z,1.40
2023-03-27T18:37:22.505Z,1.30
2023-03-27T18:39:24.231Z,1.40
2023-03-27T18:41:26.250Z,1.35
2023-03-27T18:43:28.355Z,1.50
2023-03-27T18:45:30.098Z,1.70
2023-03-27T18:47:32.127Z,1.40
2023-03-27T18:49:33.853Z,1.58
2023-03-27T18:51:35.621Z,1.58
2023-03-27T18:53:37.393Z,1.48
2023-03-27T18:55:39.055Z,2.00
2023-03-27T18:57:40.864Z,1.42
2023-03-27T18:59:42.531Z,1.77
2023-03-27T19:01:44.266Z,1.55
2023-03-27T19:03:46.034Z,1.60
2023-03-27T19:05:48.004Z,1.63
2023-03-27T19:07:49.703Z,1.50
2023-03-27T19:09:53.611Z,1.50
2023-03-27T19:11:55.688Z,1.55
2023-03-27T19:13:57.568Z,1.70
2023-03-27T19:15:59.406Z,2.00
2023-03-27T19:18:01.730Z,2.40
2023-03-27T19:20:03.557Z,1.90
2023-03-27T19:22:07.122Z,2.22
2023-03-27T19:24:08.815Z,3.13
2023-03-27T19:26:12.643Z,2.83
2023-03-27T19:28:14.785Z,2.70
2023-03-27T19:30:16.546Z,2.05
2023-03-27T19:32:18.503Z,2.08
2023-03-27T19:34:32.664Z,2.08
2023-03-27T19:36:41.973Z,1.35
2023-03-27T19:38:43.743Z,1.30
2023-03-27T19:40:45.512Z,1.33
2023-03-27T19:42:48.261Z,1.65
2023-03-27T19:44:49.985Z,1.15
2023-03-27T19:46:51.660Z,1.38
2023-03-27T19:48:53.583Z,1.88
2023-03-27T19:50:59.276Z,1.70
2023-03-27T19:53:08.044Z,2.53
2023-03-27T19:55:10.979Z,1.27
2023-03-27T19:57:12.754Z,1.80
2023-03-27T19:59:20.865Z,2.30
2023-03-27T20:01:30.171Z,2.47
2023-03-27T20:03:32.221Z,2.67
2023-03-27T20:05:34.012Z,2.30
2023-03-27T20:07:35.739Z,2.40
2023-03-27T20:09:37.743Z,1.88
2023-03-27T20:11:42.479Z,1.88
2023-03-27T20:13:55.576Z,2.00
2023-03-27T20:15:58.222Z,1.90
2023-03-27T20:18:00.411Z,2.10
2023-03-27T20:20:02.483Z,1.48
2023-03-27T20:22:07.779Z,1.60
2023-03-27T20:24:11.829Z,1.67
2023-03-27T20:26:14.062Z,1.75
2023-03-27T20:28:16.032Z,1.48
2023-03-27T20:30:17.801Z,1.38
2023-03-27T20:32:19.695Z,1.73
2023-03-27T20:34:31.360Z,1.10
2023-03-27T20:36:35.141Z,1.83
2023-03-27T20:38:36.895Z,1.55
2023-03-27T20:40:52.398Z,1.38
2023-03-27T20:43:05.931Z,1.27
2023-03-27T20:45:09.479Z,2.00
2023-03-27T20:47:12.264Z,2.70
2023-03-27T20:51:28.907Z,2.95
2023-03-27T20:53:33.612Z,2.88
2023-03-27T20:55:41.387Z,2.70
2023-03-27T20:57:48.260Z,1.95
2023-03-27T20:59:50.441Z,1.52
2023-03-27T21:01:52.214Z,1.77
2023-03-27T21:03:58.570Z,1.63
2023-03-27T21:06:11.227Z,1.35
2023-03-27T21:08:13.417Z,1.45
2023-03-27T21:10:15.473Z,2.17
2023-03-27T21:12:17.123Z,1.52
2023-03-27T21:14:18.829Z,1.77
2023-03-27T21:16:20.549Z,3.13
2023-03-27T21:18:22.315Z,5.70
2023-03-27T21:20:23.989Z,5.80
2023-03-27T21:22:25.706Z,6.03
2023-03-27T21:24:27.409Z,3.90
2023-03-27T21:26:29.191Z,3.47
2023-03-27T21:28:31.117Z,2.55
2023-03-27T21:30:46.486Z,2.08
2023-03-27T21:32:50.752Z,1.75
2023-03-27T21:34:52.520Z,1.30
2023-03-27T21:36:54.271Z,1.67
2023-03-27T21:38:56.238Z,1.70
2023-03-27T21:40:57.989Z,1.27
2023-03-27T21:43:00.152Z,1.50
2023-03-27T21:45:02.771Z,1.83
2023-03-27T21:47:04.492Z,1.90
2023-03-27T21:49:06.154Z,1.10
2023-03-27T21:51:08.907Z,1.65
2023-03-27T21:53:11.354Z,1.27
2023-03-27T21:55:13.137Z,1.55
2023-03-27T21:57:15.714Z,1.75
2023-03-27T21:59:17.464Z,1.10
2023-03-27T22:01:19.149Z,1.13
2023-03-27T22:03:21.138Z,1.30
2023-03-27T22:05:23.112Z,1.35
2023-03-27T22:07:24.827Z,1.17
2023-03-27T22:09:26.530Z,1.50
2023-03-27T22:11:28.333Z,1.80
2023-03-27T22:13:30.040Z,1.30
2023-03-27T22:15:31.873Z,1.08
2023-03-27T22:17:36.397Z,1.65
2023-03-27T22:19:38.112Z,1.40
2023-03-27T22:21:39.812Z,1.30
2023-03-27T22:23:41.630Z,1.92
2023-03-27T22:25:43.340Z,1.70
2023-03-27T22:27:47.225Z,1.25
2023-03-27T22:29:48.896Z,1.13
2023-03-27T22:31:50.683Z,1.25
2023-03-27T22:33:52.402Z,1.60
2023-03-27T22:35:54.081Z,1.80
2023-03-27T22:37:55.921Z,1.25
2023-03-27T22:39:57.813Z,1.33
2023-03-27T22:41:59.545Z,1.40
2023-03-27T22:44:01.936Z,1.25
2023-03-27T22:46:15.288Z,1.40
2023-03-27T22:48:17.021Z,1.45
2023-03-27T22:50:18.673Z,2.00
2023-03-27T22:52:20.775Z,1.40
2023-03-27T22:54:22.531Z,1.50
2023-03-27T22:56:24.387Z,1.55
2023-03-27T22:58:26.550Z,1.42
2023-03-27T23:00:28.324Z,1.30
2023-03-27T23:02:30.112Z,1.17
2023-03-27T23:04:31.967Z,1.88
2023-03-27T23:06:33.639Z,3.72
2023-03-27T23:08:35.362Z,4.68
2023-03-27T23:10:37.138Z,6.15
2023-03-27T23:12:38.861Z,4.50
2023-03-27T23:14:40.604Z,3.80
2023-03-27T23:16:42.287Z,3.15
2023-03-27T23:18:44.336Z,2.28
2023-03-27T23:20:46.086Z,3.30
2023-03-27T23:22:48.090Z,2.63
2023-03-27T23:24:49.781Z,2.00
2023-03-27T23:26:51.640Z,2.08
2023-03-27T23:28:53.365Z,1.60
2023-03-27T23:30:59.933Z,2.00
2023-03-27T23:33:01.846Z,1.58
2023-03-27T23:35:08.089Z,1.80
2023-03-27T23:37:09.731Z,2.25
2023-03-27T23:39:11.398Z,2.30
2023-03-27T23:41:14.278Z,1.50
2023-03-27T23:43:15.918Z,2.05
2023-03-27T23:45:17.674Z,1.67
2023-03-27T23:47:19.399Z,1.50
2023-03-27T23:49:21.147Z,1.55
2023-03-27T23:51:22.924Z,1.92
2023-03-27T23:53:26.302Z,2.17
2023-03-27T23:55:28.110Z,1.85
2023-03-27T23:57:29.871Z,1.52
2023-03-27T23:59:38.004Z,2.00
